createdAt,value
2018-07-06T00:01:11.009Z,0.00
2018-07-06T00:02:11.070Z,0.00
2018-07-06T00:04:04.089Z,0.00
2018-07-06T00:05:04.126Z,0.00
2018-07-06T00:06:57.121Z,0.00
2018-07-06T00:07:57.187Z,0.00
2018-07-06T00:09:50.187Z,0.00
2018-07-06T00:10:50.244Z,0.00
2018-07-06T00:12:43.244Z,0.00
2018-07-06T00:13:43.307Z,0.00
2018-07-06T00:15:36.306Z,0.00
2018-07-06T00:16:36.363Z,0.00
2018-07-06T00:18:29.357Z,0.00
2018-07-06T00:19:29.422Z,0.00
2018-07-06T00:21:22.420Z,0.00
2018-07-06T00:22:22.480Z,0.00
2018-07-06T00:24:15.472Z,0.00
2018-07-06T00:25:15.537Z,0.00
2018-07-06T00:27:08.536Z,0.00
2018-07-06T00:28:08.594Z,0.00
2018-07-06T00:30:01.608Z,0.00
2018-07-06T00:31:01.650Z,0.00
2018-07-06T00:32:54.644Z,0.00
2018-07-06T00:33:54.708Z,0.00
2018-07-06T00:35:47.708Z,0.00
2018-07-06T00:36:47.816Z,0.00
2018-07-06T00:38:40.756Z,0.00
2018-07-06T00:39:40.820Z,0.00
2018-07-06T00:41:33.819Z,0.00
2018-07-06T00:42:33.877Z,0.00
2018-07-06T00:44:26.874Z,0.00
2018-07-06T00:45:26.935Z,0.00
2018-07-06T00:47:19.935Z,0.00
2018-07-06T00:48:19.993Z,0.00
2018-07-06T00:50:12.987Z,0.00
2018-07-06T00:51:13.048Z,0.00
2018-07-06T00:53:06.049Z,0.00
2018-07-06T00:54:06.105Z,0.00
2018-07-06T00:55:59.105Z,0.00
2018-07-06T00:56:59.162Z,0.00
2018-07-06T00:58:52.159Z,0.00
2018-07-06T00:59:52.222Z,0.00
2018-07-06T01:01:45.264Z,0.00
2018-07-06T01:02:45.281Z,0.00
2018-07-06T01:04:38.271Z,0.00
2018-07-06T01:05:38.338Z,0.00
2018-07-06T01:07:31.341Z,0.00
2018-07-06T01:08:31.393Z,0.00
2018-07-06T01:10:24.398Z,0.00
2018-07-06T01:11:24.462Z,0.00
2018-07-06T01:13:17.461Z,0.00
2018-07-06T01:14:17.520Z,0.00
2018-07-06T01:16:10.517Z,0.00
2018-07-06T01:17:10.574Z,0.00
2018-07-06T01:19:03.571Z,0.00
2018-07-06T01:20:03.636Z,0.00
2018-07-06T01:21:56.630Z,0.00
2018-07-06T01:22:56.690Z,0.00
2018-07-06T01:24:49.688Z,0.00
2018-07-06T01:25:49.748Z,0.00
2018-07-06T01:27:42.748Z,0.00
2018-07-06T01:28:42.804Z,0.00
2018-07-06T01:30:35.803Z,0.00
2018-07-06T01:31:35.870Z,0.00
2018-07-06T01:33:28.866Z,0.00
2018-07-06T01:34:28.938Z,0.00
2018-07-06T01:36:21.921Z,0.00
2018-07-06T01:37:21.977Z,0.00
2018-07-06T01:39:14.975Z,0.00
2018-07-06T01:40:15.034Z,0.00
2018-07-06T01:42:08.032Z,0.00
2018-07-06T01:43:08.090Z,0.00
2018-07-06T01:45:01.089Z,0.00
2018-07-06T01:46:01.157Z,0.00
2018-07-06T01:47:54.152Z,0.00
2018-07-06T01:48:54.208Z,0.00
2018-07-06T01:50:47.200Z,0.00
2018-07-06T01:51:47.264Z,0.00
2018-07-06T01:53:40.266Z,0.00
2018-07-06T01:54:40.328Z,0.00
2018-07-06T01:56:33.315Z,0.00
2018-07-06T01:57:33.380Z,0.00
2018-07-06T01:59:26.376Z,0.00
2018-07-06T02:00:26.435Z,0.00
2018-07-06T02:02:19.438Z,0.00
2018-07-06T02:03:19.493Z,0.00
2018-07-06T02:05:12.484Z,0.00
2018-07-06T02:06:12.550Z,0.00
2018-07-06T02:08:05.555Z,0.00
2018-07-06T02:09:05.613Z,0.00
2018-07-06T02:10:58.599Z,0.00
2018-07-06T02:11:58.665Z,0.00
2018-07-06T02:13:51.666Z,0.00
2018-07-06T02:14:51.723Z,0.00
2018-07-06T02:16:44.713Z,0.00
2018-07-06T02:17:44.777Z,0.00
2018-07-06T02:19:37.775Z,0.00
2018-07-06T02:20:37.837Z,0.00
2018-07-06T02:22:30.833Z,0.00
2018-07-06T02:23:30.894Z,0.00
2018-07-06T02:25:23.892Z,0.00
2018-07-06T02:26:23.951Z,0.00
2018-07-06T02:28:16.947Z,0.00
2018-07-06T02:29:17.007Z,0.00
2018-07-06T02:31:10.009Z,0.00
2018-07-06T02:32:10.065Z,0.00
2018-07-06T02:34:03.063Z,0.00
2018-07-06T02:35:03.123Z,0.00
2018-07-06T02:36:56.117Z,0.00
2018-07-06T02:37:56.178Z,0.00
2018-07-06T02:39:49.176Z,0.00
2018-07-06T02:40:49.234Z,0.00
2018-07-06T02:42:42.234Z,0.00
2018-07-06T02:43:42.300Z,0.00
2018-07-06T02:45:35.297Z,0.00
2018-07-06T02:46:35.355Z,0.00
2018-07-06T02:48:28.354Z,0.00
2018-07-06T02:49:28.409Z,0.00
2018-07-06T02:51:21.403Z,0.00
2018-07-06T02:52:21.467Z,0.00
2018-07-06T02:54:14.462Z,0.00
2018-07-06T02:55:14.613Z,0.00
2018-07-06T02:57:07.528Z,0.00
2018-07-06T02:58:07.579Z,0.00
2018-07-06T03:00:00.580Z,0.00
2018-07-06T03:01:00.638Z,0.00
2018-07-06T03:02:53.629Z,0.00
2018-07-06T03:03:53.693Z,0.00
2018-07-06T03:05:46.694Z,0.00
2018-07-06T03:06:46.749Z,0.00
2018-07-06T03:08:39.757Z,0.00
2018-07-06T03:09:39.811Z,0.00
2018-07-06T03:11:32.812Z,0.00
2018-07-06T03:12:32.876Z,0.00
2018-07-06T03:14:25.869Z,0.00
2018-07-06T03:15:25.926Z,0.00
2018-07-06T03:17:18.916Z,5.63
2018-07-06T03:18:18.981Z,5.63
2018-07-06T03:20:11.980Z,5.63
2018-07-06T03:21:12.036Z,5.63
2018-07-06T03:23:05.027Z,5.63
2018-07-06T03:24:05.093Z,5.63
2018-07-06T03:25:58.091Z,5.63
2018-07-06T03:26:58.148Z,11.25
2018-07-06T03:28:51.445Z,11.25
2018-07-06T03:29:51.208Z,11.25
2018-07-06T03:31:44.211Z,11.25
2018-07-06T03:32:44.264Z,11.25
2018-07-06T03:34:37.263Z,11.25
2018-07-06T03:35:37.319Z,11.25
2018-07-06T03:37:30.316Z,16.88
2018-07-06T03:38:30.381Z,16.88
2018-07-06T03:40:23.381Z,16.88
2018-07-06T03:41:23.439Z,16.88
2018-07-06T03:43:16.432Z,16.88
2018-07-06T03:44:16.495Z,16.88
2018-07-06T03:46:09.493Z,16.88
2018-07-06T03:47:09.552Z,16.88
2018-07-06T03:49:02.546Z,16.88
2018-07-06T03:50:02.607Z,16.88
2018-07-06T03:51:55.610Z,16.88
2018-07-06T03:52:55.684Z,16.88
2018-07-06T03:54:48.673Z,16.88
2018-07-06T03:55:48.723Z,16.88
2018-07-06T03:57:41.731Z,16.88
2018-07-06T03:58:41.779Z,16.88
2018-07-06T04:00:34.777Z,22.50
2018-07-06T04:01:34.840Z,22.50
2018-07-06T04:03:27.833Z,22.50
2018-07-06T04:04:27.895Z,22.50
2018-07-06T04:06:20.896Z,22.50
2018-07-06T04:07:20.957Z,22.50
2018-07-06T04:09:13.952Z,28.13
2018-07-06T04:10:14.009Z,28.13
2018-07-06T04:12:07.010Z,33.75
2018-07-06T04:13:07.067Z,45.00
2018-07-06T04:15:00.077Z,50.63
2018-07-06T04:16:00.134Z,50.63
2018-07-06T04:17:53.128Z,61.88
2018-07-06T04:18:53.186Z,61.88
2018-07-06T04:20:46.184Z,67.50
2018-07-06T04:21:46.241Z,67.50
2018-07-06T04:23:39.234Z,67.50
2018-07-06T04:24:39.296Z,67.50
2018-07-06T04:26:32.875Z,61.88
2018-07-06T04:27:32.862Z,56.25
2018-07-06T04:29:25.849Z,56.25
2018-07-06T04:30:25.923Z,56.25
2018-07-06T04:32:18.912Z,56.25
2018-07-06T04:33:18.967Z,56.25
2018-07-06T04:35:11.967Z,50.63
2018-07-06T04:36:12.025Z,50.63
2018-07-06T04:38:05.016Z,45.00
2018-07-06T04:39:05.082Z,45.00
2018-07-06T04:40:58.081Z,50.63
2018-07-06T04:41:58.144Z,50.63
2018-07-06T04:43:51.130Z,50.63
2018-07-06T04:44:51.196Z,50.63
2018-07-06T04:46:44.196Z,56.25
2018-07-06T04:47:44.260Z,56.25
2018-07-06T04:49:37.245Z,56.25
2018-07-06T04:50:37.311Z,56.25
2018-07-06T04:52:30.311Z,61.88
2018-07-06T04:53:30.401Z,61.88
2018-07-06T04:55:23.368Z,61.88
2018-07-06T04:56:23.425Z,61.88
2018-07-06T04:58:16.420Z,61.88
2018-07-06T04:59:16.492Z,67.50
2018-07-06T05:01:09.482Z,67.50
2018-07-06T05:02:09.542Z,67.50
2018-07-06T05:04:02.536Z,61.88
2018-07-06T05:05:02.596Z,61.88
2018-07-06T05:06:55.601Z,56.25
2018-07-06T05:07:55.659Z,50.63
2018-07-06T05:09:48.648Z,50.63
2018-07-06T05:10:48.714Z,45.00
2018-07-06T05:12:41.734Z,45.00
2018-07-06T05:13:41.791Z,56.25
2018-07-06T05:15:34.794Z,73.13
2018-07-06T05:16:34.852Z,78.75
2018-07-06T05:18:27.846Z,73.13
2018-07-06T05:19:27.908Z,73.13
2018-07-06T05:21:20.914Z,78.75
2018-07-06T05:22:20.968Z,78.75
2018-07-06T05:24:13.967Z,73.13
2018-07-06T05:25:14.033Z,78.75
2018-07-06T05:27:07.541Z,84.38
2018-07-06T05:28:07.600Z,95.63
2018-07-06T05:30:00.598Z,90.00
2018-07-06T05:31:00.664Z,84.38
2018-07-06T05:32:53.662Z,84.38
2018-07-06T05:33:53.720Z,84.38
2018-07-06T05:35:46.785Z,84.38
2018-07-06T05:36:46.804Z,90.00
2018-07-06T05:38:39.803Z,95.63
2018-07-06T05:39:39.860Z,112.50
2018-07-06T05:41:32.859Z,129.38
2018-07-06T05:42:32.915Z,118.13
2018-07-06T05:44:25.907Z,112.50
2018-07-06T05:45:25.971Z,123.75
2018-07-06T05:47:18.968Z,135.00
2018-07-06T05:48:19.027Z,151.88
2018-07-06T05:50:12.022Z,168.75
2018-07-06T05:51:12.080Z,157.50
2018-07-06T05:53:05.086Z,151.88
2018-07-06T05:54:05.141Z,163.13
2018-07-06T05:55:58.133Z,185.63
2018-07-06T05:56:58.193Z,191.25
2018-07-06T05:58:51.198Z,185.63
2018-07-06T05:59:51.255Z,163.13
2018-07-06T06:01:44.255Z,157.50
2018-07-06T06:02:44.309Z,180.00
2018-07-06T06:04:37.316Z,236.25
2018-07-06T06:05:37.369Z,275.63
2018-07-06T06:07:30.368Z,315.00
2018-07-06T06:08:30.430Z,292.50
2018-07-06T06:10:23.425Z,281.25
2018-07-06T06:11:23.487Z,258.75
2018-07-06T06:13:16.484Z,264.38
2018-07-06T06:14:16.543Z,275.63
2018-07-06T06:16:09.534Z,275.63
2018-07-06T06:17:09.598Z,292.50
2018-07-06T06:19:02.603Z,320.63
2018-07-06T06:20:02.663Z,320.63
2018-07-06T06:21:55.654Z,354.38
2018-07-06T06:22:55.717Z,376.88
2018-07-06T06:24:48.763Z,399.38
2018-07-06T06:25:48.767Z,393.75
2018-07-06T06:27:41.812Z,399.38
2018-07-06T06:28:41.864Z,371.25
2018-07-06T06:30:34.858Z,360.00
2018-07-06T06:31:34.921Z,360.00
2018-07-06T06:33:27.998Z,320.63
2018-07-06T06:34:27.979Z,326.25
2018-07-06T06:36:20.969Z,354.38
2018-07-06T06:37:21.042Z,371.25
2018-07-06T06:39:14.034Z,348.75
2018-07-06T06:40:14.096Z,331.88
2018-07-06T06:42:07.086Z,331.88
2018-07-06T06:43:07.154Z,365.63
2018-07-06T06:45:00.164Z,461.25
2018-07-06T06:46:00.216Z,551.25
2018-07-06T06:47:53.228Z,562.50
2018-07-06T06:48:53.286Z,545.63
2018-07-06T06:50:46.297Z,495.00
2018-07-06T06:51:46.334Z,466.88
2018-07-06T06:53:39.339Z,500.63
2018-07-06T06:54:39.395Z,556.88
2018-07-06T06:56:32.410Z,495.00
2018-07-06T06:57:32.452Z,461.25
2018-07-06T06:59:25.485Z,410.63
2018-07-06T07:00:27.534Z,382.50
2018-07-06T07:02:18.574Z,393.75
2018-07-06T07:03:18.605Z,360.00
2018-07-06T07:05:11.574Z,292.50
2018-07-06T07:06:11.654Z,270.00
2018-07-06T07:08:04.636Z,286.88
2018-07-06T07:09:04.698Z,393.75
2018-07-06T07:10:57.721Z,388.13
2018-07-06T07:11:57.769Z,472.50
2018-07-06T07:13:50.910Z,714.38
2018-07-06T07:14:50.857Z,630.00
2018-07-06T07:16:43.912Z,433.13
2018-07-06T07:17:43.946Z,376.88
2018-07-06T07:19:36.951Z,354.38
2018-07-06T07:20:36.946Z,337.50
2018-07-06T07:22:29.978Z,315.00
2018-07-06T07:23:30.019Z,315.00
2018-07-06T07:25:23.011Z,466.88
2018-07-06T07:26:23.066Z,551.25
2018-07-06T07:28:16.053Z,658.13
2018-07-06T07:29:16.125Z,748.13
2018-07-06T07:31:09.177Z,753.75
2018-07-06T07:32:09.191Z,832.50
2018-07-06T07:34:02.209Z,686.25
2018-07-06T07:35:02.261Z,697.50
2018-07-06T07:36:55.254Z,562.50
2018-07-06T07:37:55.307Z,568.13
2018-07-06T07:39:48.317Z,568.13
2018-07-06T07:40:48.376Z,517.50
2018-07-06T07:42:41.372Z,585.00
2018-07-06T07:43:41.439Z,669.38
2018-07-06T07:45:34.443Z,686.25
2018-07-06T07:46:34.541Z,708.75
2018-07-06T07:48:27.495Z,697.50
2018-07-06T07:49:27.568Z,624.38
2018-07-06T07:51:20.596Z,511.88
2018-07-06T07:52:20.656Z,455.63
2018-07-06T07:54:13.643Z,596.25
2018-07-06T07:55:13.697Z,646.88
2018-07-06T07:57:06.867Z,624.38
2018-07-06T07:58:06.755Z,635.63
2018-07-06T07:59:59.968Z,928.13
2018-07-06T08:00:59.958Z,736.88
2018-07-06T08:02:52.983Z,534.38
2018-07-06T08:03:52.887Z,624.38
2018-07-06T08:05:45.883Z,635.63
2018-07-06T08:06:45.955Z,635.63
2018-07-06T08:08:38.957Z,961.88
2018-07-06T08:09:39.027Z,1271.25
2018-07-06T08:11:35.445Z,1108.13
2018-07-06T08:12:32.089Z,1046.25
2018-07-06T08:14:25.149Z,905.63
2018-07-06T08:15:25.150Z,1040.63
2018-07-06T08:17:18.161Z,1310.63
2018-07-06T08:18:18.266Z,2773.13
2018-07-06T08:20:11.222Z,4584.38
2018-07-06T08:21:11.278Z,1563.75
2018-07-06T08:23:04.288Z,1288.13
2018-07-06T08:24:04.360Z,3931.88
2018-07-06T08:25:57.374Z,4438.13
2018-07-06T08:26:57.431Z,4640.63
2018-07-06T08:28:50.440Z,4663.13
2018-07-06T08:29:50.508Z,4522.50
2018-07-06T08:31:43.528Z,2497.50
2018-07-06T08:32:43.586Z,888.75
2018-07-06T08:34:36.603Z,978.75
2018-07-06T08:35:36.670Z,2953.13
2018-07-06T08:37:29.709Z,871.88
2018-07-06T08:38:29.756Z,1788.75
2018-07-06T08:40:22.782Z,1333.13
2018-07-06T08:41:22.848Z,1220.63
2018-07-06T08:43:15.853Z,5000.63
2018-07-06T08:44:15.942Z,3493.13
2018-07-06T08:46:08.947Z,4410.00
2018-07-06T08:47:09.025Z,4556.25
2018-07-06T08:49:02.026Z,1164.38
2018-07-06T08:50:02.101Z,1260.00
2018-07-06T08:51:55.150Z,4213.13
2018-07-06T08:52:55.186Z,4303.13
2018-07-06T08:54:48.201Z,4275.00
2018-07-06T08:55:48.482Z,4066.88
2018-07-06T08:57:41.292Z,821.25
2018-07-06T08:58:41.384Z,888.75
2018-07-06T09:00:34.388Z,1085.63
2018-07-06T09:01:34.466Z,2030.63
2018-07-06T09:03:27.461Z,4235.63
2018-07-06T09:04:27.636Z,4865.63
2018-07-06T09:06:20.670Z,2823.75
2018-07-06T09:07:20.624Z,4488.75
2018-07-06T09:09:13.661Z,4567.50
2018-07-06T09:10:13.716Z,4522.50
2018-07-06T09:12:06.740Z,4708.13
2018-07-06T09:13:06.851Z,4944.38
2018-07-06T09:14:59.824Z,4950.00
2018-07-06T09:15:59.902Z,3026.25
2018-07-06T09:17:52.925Z,4320.00
2018-07-06T09:18:52.995Z,4629.38
2018-07-06T09:20:46.019Z,4533.75
2018-07-06T09:21:46.089Z,4005.00
2018-07-06T09:23:39.105Z,4635.00
2018-07-06T09:24:39.183Z,4500.00
2018-07-06T09:26:32.750Z,4663.13
2018-07-06T09:27:32.788Z,1282.50
2018-07-06T09:29:25.809Z,3313.13
2018-07-06T09:30:25.888Z,826.88
2018-07-06T09:32:18.913Z,3633.75
2018-07-06T09:33:18.983Z,4134.38
2018-07-06T09:35:12.012Z,2823.75
2018-07-06T09:36:12.079Z,826.88
2018-07-06T09:38:05.132Z,888.75
2018-07-06T09:39:05.168Z,978.75
2018-07-06T09:40:58.208Z,995.63
2018-07-06T09:41:58.271Z,1006.88
2018-07-06T09:43:51.297Z,916.88
2018-07-06T09:44:51.381Z,826.88
2018-07-06T09:46:44.388Z,731.25
2018-07-06T09:47:44.455Z,703.13
2018-07-06T09:49:37.477Z,680.63
2018-07-06T09:50:37.546Z,669.38
2018-07-06T09:52:30.561Z,669.38
2018-07-06T09:53:30.628Z,663.75
2018-07-06T09:55:23.640Z,618.75
2018-07-06T09:56:23.710Z,635.63
2018-07-06T09:58:16.730Z,686.25
2018-07-06T09:59:16.792Z,697.50
2018-07-06T10:01:09.809Z,736.88
2018-07-06T10:02:09.878Z,742.50
2018-07-06T10:04:02.893Z,720.00
2018-07-06T10:05:02.958Z,703.13
2018-07-06T10:06:55.968Z,691.88
2018-07-06T10:07:56.032Z,635.63
2018-07-06T10:09:49.054Z,579.38
2018-07-06T10:10:49.108Z,590.63
2018-07-06T10:12:42.123Z,652.50
2018-07-06T10:13:42.188Z,663.75
2018-07-06T10:15:35.203Z,680.63
2018-07-06T10:16:35.267Z,618.75
2018-07-06T10:18:28.280Z,624.38
2018-07-06T10:19:28.390Z,663.75
2018-07-06T10:21:21.349Z,753.75
2018-07-06T10:22:21.414Z,736.88
2018-07-06T10:24:14.424Z,658.13
2018-07-06T10:25:14.487Z,607.50
2018-07-06T10:27:07.506Z,534.38
2018-07-06T10:28:07.562Z,506.25
2018-07-06T10:30:00.571Z,466.88
2018-07-06T10:31:00.642Z,427.50
2018-07-06T10:32:53.649Z,444.38
2018-07-06T10:33:53.796Z,438.75
2018-07-06T10:35:46.718Z,466.88
2018-07-06T10:36:46.784Z,455.63
2018-07-06T10:38:39.792Z,444.38
2018-07-06T10:39:39.947Z,461.25
2018-07-06T10:41:32.862Z,483.75
2018-07-06T10:42:32.932Z,489.38
2018-07-06T10:44:25.940Z,489.38
2018-07-06T10:45:26.006Z,478.13
2018-07-06T10:47:19.007Z,433.13
2018-07-06T10:48:19.075Z,399.38
2018-07-06T10:50:12.076Z,382.50
2018-07-06T10:51:12.146Z,382.50
2018-07-06T10:53:05.155Z,376.88
2018-07-06T10:54:05.218Z,354.38
2018-07-06T10:55:58.223Z,410.63
2018-07-06T10:56:58.288Z,433.13
2018-07-06T10:58:51.299Z,455.63
2018-07-06T10:59:51.359Z,500.63
2018-07-06T11:01:44.360Z,500.63
2018-07-06T11:02:44.430Z,483.75
2018-07-06T11:04:37.436Z,528.75
2018-07-06T11:05:37.500Z,478.13
2018-07-06T11:07:30.547Z,450.00
2018-07-06T11:08:30.594Z,472.50
2018-07-06T11:10:23.603Z,573.75
2018-07-06T11:11:23.706Z,556.88
2018-07-06T11:13:16.678Z,495.00
2018-07-06T11:14:16.742Z,489.38
2018-07-06T11:16:09.747Z,450.00
2018-07-06T11:17:09.832Z,427.50
2018-07-06T11:19:02.879Z,410.63
2018-07-06T11:20:02.890Z,410.63
2018-07-06T11:21:55.897Z,466.88
2018-07-06T11:22:55.965Z,472.50
2018-07-06T11:24:48.973Z,444.38
2018-07-06T11:25:49.036Z,421.88
2018-07-06T11:27:42.043Z,376.88
2018-07-06T11:28:42.105Z,388.13
2018-07-06T11:30:35.121Z,405.00
2018-07-06T11:31:35.185Z,376.88
2018-07-06T11:33:28.192Z,360.00
2018-07-06T11:34:28.258Z,371.25
2018-07-06T11:36:21.254Z,444.38
2018-07-06T11:37:21.325Z,489.38
2018-07-06T11:39:14.330Z,410.63
2018-07-06T11:40:14.396Z,388.13
2018-07-06T11:42:07.433Z,393.75
2018-07-06T11:43:07.497Z,388.13
2018-07-06T11:45:01.095Z,393.75
2018-07-06T11:46:01.073Z,405.00
2018-07-06T11:47:54.073Z,388.13
2018-07-06T11:48:54.141Z,393.75
2018-07-06T11:50:47.146Z,399.38
2018-07-06T11:51:47.207Z,393.75
2018-07-06T11:53:40.221Z,388.13
2018-07-06T11:54:40.281Z,388.13
2018-07-06T11:56:33.285Z,410.63
2018-07-06T11:57:33.353Z,433.13
2018-07-06T11:59:26.383Z,427.50
2018-07-06T12:00:26.429Z,433.13
2018-07-06T12:02:19.433Z,393.75
2018-07-06T12:03:19.508Z,376.88
2018-07-06T12:05:12.524Z,371.25
2018-07-06T12:06:12.585Z,388.13
2018-07-06T12:08:05.587Z,348.75
2018-07-06T12:09:05.654Z,337.50
2018-07-06T12:10:58.662Z,354.38
2018-07-06T12:11:58.723Z,376.88
2018-07-06T12:13:51.741Z,376.88
2018-07-06T12:14:51.798Z,416.25
2018-07-06T12:16:44.794Z,393.75
2018-07-06T12:17:44.884Z,371.25
2018-07-06T12:19:37.871Z,388.13
2018-07-06T12:20:37.929Z,388.13
2018-07-06T12:22:30.933Z,376.88
2018-07-06T12:23:31.003Z,365.63
2018-07-06T12:25:24.009Z,438.75
2018-07-06T12:26:24.072Z,489.38
2018-07-06T12:28:17.080Z,573.75
2018-07-06T12:29:17.261Z,551.25
2018-07-06T12:31:10.165Z,450.00
2018-07-06T12:32:10.217Z,410.63
2018-07-06T12:34:03.227Z,343.13
2018-07-06T12:35:03.285Z,399.38
2018-07-06T12:36:56.333Z,444.38
2018-07-06T12:37:56.356Z,450.00
2018-07-06T12:39:49.369Z,438.75
2018-07-06T12:40:49.424Z,495.00
2018-07-06T12:42:42.426Z,511.88
2018-07-06T12:43:42.494Z,461.25
2018-07-06T12:45:37.004Z,399.38
2018-07-06T12:46:37.065Z,405.00
2018-07-06T12:48:30.064Z,405.00
2018-07-06T12:49:30.135Z,399.38
2018-07-06T12:51:23.137Z,376.88
2018-07-06T12:52:23.200Z,365.63
2018-07-06T12:54:16.206Z,410.63
2018-07-06T12:55:16.276Z,444.38
2018-07-06T12:57:09.285Z,450.00
2018-07-06T12:58:09.410Z,450.00
2018-07-06T13:00:02.354Z,337.50
2018-07-06T13:01:02.421Z,298.13
2018-07-06T13:02:55.424Z,281.25
2018-07-06T13:03:55.487Z,270.00
2018-07-06T13:05:48.497Z,286.88
2018-07-06T13:06:48.558Z,292.50
2018-07-06T13:08:41.561Z,292.50
2018-07-06T13:09:41.629Z,331.88
2018-07-06T13:11:34.638Z,337.50
2018-07-06T13:12:34.699Z,354.38
2018-07-06T13:14:28.229Z,472.50
2018-07-06T13:15:28.279Z,466.88
2018-07-06T13:17:21.291Z,365.63
2018-07-06T13:18:21.346Z,376.88
2018-07-06T13:20:14.359Z,376.88
2018-07-06T13:21:14.430Z,405.00
2018-07-06T13:23:07.437Z,517.50
2018-07-06T13:24:07.503Z,601.88
2018-07-06T13:26:00.533Z,708.75
2018-07-06T13:27:00.568Z,725.63
2018-07-06T13:28:53.570Z,703.13
2018-07-06T13:29:53.638Z,697.50
2018-07-06T13:31:46.652Z,658.13
2018-07-06T13:32:46.714Z,669.38
2018-07-06T13:34:39.715Z,748.13
2018-07-06T13:35:39.786Z,731.25
2018-07-06T13:37:32.795Z,618.75
2018-07-06T13:38:32.856Z,579.38
2018-07-06T13:40:25.864Z,562.50
2018-07-06T13:41:25.932Z,495.00
2018-07-06T13:43:18.942Z,388.13
2018-07-06T13:44:19.007Z,399.38
2018-07-06T13:46:12.025Z,444.38
2018-07-06T13:47:12.076Z,506.25
2018-07-06T13:49:05.081Z,607.50
2018-07-06T13:50:05.147Z,618.75
2018-07-06T13:51:58.160Z,641.25
2018-07-06T13:52:58.234Z,669.38
2018-07-06T13:54:51.230Z,613.13
2018-07-06T13:55:51.297Z,579.38
2018-07-06T13:57:44.313Z,545.63
2018-07-06T13:58:44.375Z,551.25
2018-07-06T14:00:37.382Z,545.63
2018-07-06T14:01:37.449Z,483.75
2018-07-06T14:03:30.461Z,500.63
2018-07-06T14:04:30.527Z,568.13
2018-07-06T14:06:23.523Z,630.00
2018-07-06T14:07:23.597Z,618.75
2018-07-06T14:09:16.606Z,658.13
2018-07-06T14:10:16.664Z,646.88
2018-07-06T14:12:09.685Z,641.25
2018-07-06T14:13:09.750Z,624.38
2018-07-06T14:15:03.260Z,630.00
2018-07-06T14:16:03.334Z,624.38
2018-07-06T14:17:56.338Z,540.00
2018-07-06T14:18:56.401Z,523.13
2018-07-06T14:20:49.412Z,506.25
2018-07-06T14:21:49.473Z,590.63
2018-07-06T14:23:42.486Z,585.00
2018-07-06T14:24:42.547Z,556.88
2018-07-06T14:26:35.552Z,613.13
2018-07-06T14:27:35.622Z,601.88
2018-07-06T14:29:28.637Z,630.00
2018-07-06T14:30:28.695Z,607.50
2018-07-06T14:32:21.702Z,585.00
2018-07-06T14:33:21.766Z,579.38
2018-07-06T14:35:14.772Z,556.88
2018-07-06T14:36:14.838Z,528.75
2018-07-06T14:38:07.853Z,528.75
2018-07-06T14:39:07.909Z,511.88
2018-07-06T14:41:00.969Z,534.38
2018-07-06T14:42:00.982Z,551.25
2018-07-06T14:43:53.990Z,562.50
2018-07-06T14:44:54.055Z,545.63
2018-07-06T14:46:47.061Z,540.00
2018-07-06T14:47:47.124Z,568.13
2018-07-06T14:49:40.133Z,596.25
2018-07-06T14:50:40.193Z,596.25
2018-07-06T14:52:33.260Z,517.50
2018-07-06T14:53:33.299Z,466.88
2018-07-06T14:55:26.292Z,416.25
2018-07-06T14:56:26.354Z,421.88
2018-07-06T14:58:19.380Z,461.25
2018-07-06T14:59:19.422Z,511.88
2018-07-06T15:01:12.452Z,573.75
2018-07-06T15:02:12.504Z,585.00
2018-07-06T15:04:05.508Z,596.25
2018-07-06T15:05:05.575Z,585.00
2018-07-06T15:06:58.609Z,534.38
2018-07-06T15:07:58.650Z,483.75
2018-07-06T15:09:51.671Z,450.00
2018-07-06T15:10:51.731Z,433.13
2018-07-06T15:12:45.292Z,483.75
2018-07-06T15:13:45.344Z,562.50
2018-07-06T15:15:38.341Z,613.13
2018-07-06T15:16:38.384Z,601.88
2018-07-06T15:18:31.616Z,607.50
2018-07-06T15:19:31.453Z,607.50
2018-07-06T15:21:24.464Z,506.25
2018-07-06T15:22:24.537Z,438.75
2018-07-06T15:24:18.052Z,326.25
2018-07-06T15:25:18.113Z,298.13
2018-07-06T15:27:11.122Z,348.75
2018-07-06T15:28:11.185Z,354.38
2018-07-06T15:30:04.200Z,354.38
2018-07-06T15:31:04.269Z,371.25
2018-07-06T15:32:57.267Z,337.50
2018-07-06T15:33:57.355Z,348.75
2018-07-06T15:35:50.858Z,360.00
2018-07-06T15:36:50.913Z,371.25
2018-07-06T15:38:43.980Z,388.13
2018-07-06T15:39:43.983Z,399.38
2018-07-06T15:41:36.990Z,416.25
2018-07-06T15:42:37.065Z,405.00
2018-07-06T15:44:30.132Z,405.00
2018-07-06T15:45:30.136Z,405.00
2018-07-06T15:47:23.144Z,343.13
2018-07-06T15:48:23.219Z,331.88
2018-07-06T15:50:16.219Z,343.13
2018-07-06T15:51:16.284Z,371.25
2018-07-06T15:53:09.298Z,388.13
2018-07-06T15:54:09.375Z,360.00
2018-07-06T15:56:02.366Z,360.00
2018-07-06T15:57:02.447Z,376.88
2018-07-06T15:58:55.453Z,382.50
2018-07-06T15:59:55.512Z,382.50
2018-07-06T16:01:48.539Z,331.88
2018-07-06T16:02:48.596Z,326.25
2018-07-06T16:04:41.599Z,331.88
2018-07-06T16:05:41.665Z,320.63
2018-07-06T16:07:34.662Z,337.50
2018-07-06T16:08:34.732Z,343.13
2018-07-06T16:10:27.815Z,354.38
2018-07-06T16:11:27.796Z,371.25
2018-07-06T16:13:20.805Z,438.75
2018-07-06T16:14:20.886Z,444.38
2018-07-06T16:16:13.883Z,438.75
2018-07-06T16:17:13.940Z,433.13
2018-07-06T16:19:06.961Z,376.88
2018-07-06T16:20:07.014Z,360.00
2018-07-06T16:22:00.025Z,326.25
2018-07-06T16:23:00.084Z,292.50
2018-07-06T16:24:53.139Z,258.75
2018-07-06T16:25:53.159Z,258.75
2018-07-06T16:27:46.170Z,275.63
2018-07-06T16:28:46.232Z,331.88
2018-07-06T16:30:39.315Z,376.88
2018-07-06T16:31:39.384Z,371.25
2018-07-06T16:33:32.352Z,337.50
2018-07-06T16:34:32.397Z,309.38
2018-07-06T16:36:25.928Z,258.75
2018-07-06T16:37:25.959Z,286.88
2018-07-06T16:39:18.963Z,275.63
2018-07-06T16:40:19.032Z,275.63
2018-07-06T16:42:12.041Z,292.50
2018-07-06T16:43:12.102Z,286.88
2018-07-06T16:45:05.131Z,286.88
2018-07-06T16:46:05.177Z,281.25
2018-07-06T16:47:58.188Z,275.63
2018-07-06T16:48:58.255Z,264.38
2018-07-06T16:50:51.292Z,241.88
2018-07-06T16:51:51.322Z,230.63
2018-07-06T16:53:44.319Z,219.38
2018-07-06T16:54:44.388Z,208.13
2018-07-06T16:56:37.396Z,219.38
2018-07-06T16:57:37.455Z,230.63
2018-07-06T16:59:30.462Z,247.50
2018-07-06T17:00:30.528Z,253.13
2018-07-06T17:02:23.538Z,281.25
2018-07-06T17:03:23.602Z,292.50
2018-07-06T17:05:16.633Z,270.00
2018-07-06T17:06:16.671Z,258.75
2018-07-06T17:08:09.676Z,253.13
2018-07-06T17:09:09.740Z,253.13
2018-07-06T17:11:02.773Z,236.25
2018-07-06T17:12:02.816Z,230.63
2018-07-06T17:13:55.836Z,225.00
2018-07-06T17:14:55.882Z,225.00
2018-07-06T17:16:48.905Z,208.13
2018-07-06T17:17:48.949Z,196.88
2018-07-06T17:19:41.956Z,191.25
2018-07-06T17:20:42.019Z,208.13
2018-07-06T17:22:35.033Z,208.13
2018-07-06T17:23:35.102Z,208.13
2018-07-06T17:25:28.099Z,213.75
2018-07-06T17:26:28.164Z,225.00
2018-07-06T17:28:21.173Z,236.25
2018-07-06T17:29:21.237Z,236.25
2018-07-06T17:31:14.244Z,230.63
2018-07-06T17:32:14.309Z,219.38
2018-07-06T17:34:07.313Z,180.00
2018-07-06T17:35:07.375Z,168.75
2018-07-06T17:37:00.378Z,163.13
2018-07-06T17:38:00.490Z,168.75
2018-07-06T17:39:53.465Z,151.88
2018-07-06T17:40:53.514Z,157.50
2018-07-06T17:42:46.526Z,151.88
2018-07-06T17:43:46.593Z,157.50
2018-07-06T17:45:39.591Z,157.50
2018-07-06T17:46:39.659Z,157.50
2018-07-06T17:48:32.667Z,163.13
2018-07-06T17:49:32.776Z,163.13
2018-07-06T17:51:25.745Z,174.38
2018-07-06T17:52:25.801Z,174.38
2018-07-06T17:54:18.810Z,174.38
2018-07-06T17:55:18.872Z,180.00
2018-07-06T17:57:11.880Z,180.00
2018-07-06T17:58:11.938Z,180.00
2018-07-06T18:00:04.943Z,168.75
2018-07-06T18:01:05.003Z,168.75
2018-07-06T18:02:58.014Z,157.50
2018-07-06T18:03:58.072Z,151.88
2018-07-06T18:05:51.080Z,135.00
2018-07-06T18:06:51.142Z,129.38
2018-07-06T18:08:44.168Z,123.75
2018-07-06T18:09:44.224Z,118.13
2018-07-06T18:11:37.218Z,118.13
2018-07-06T18:12:37.286Z,118.13
2018-07-06T18:14:30.307Z,123.75